^^
Station Historical Data
 
Daily Summary for February 19, 2019 Units:  English    Metric   Both
« Previous Day
Next Day »
Daily Weekly Monthly Yearly Custom
  Current: High: Low: Average:
Temperature: 20.1 °F 22.7 °F 16.0 °F 19 °F
Dew Point: 15.5 °F 16.8 °F 12.1 °F 14.5 °F
Humidity: 82% 88% 76% 83%
Wind Speed: 0.0mph 5.0mph 0.0mph 0.1mph
Wind Gust: 0.0mph 6.0mph - -
WindCalm - - WSW
Pressure: 30.17 in 30.17 in 30.12 in -
Precipitation: 0.00 in      
Historical Graphs
 
 
Tabular Data for February 19, 2019
Time Temperature Dew Point Pressure Wind Wind Speed Wind Gust Humidity Rainfall Rate (Hourly) solar Conditions
00:00 19.3 °F 14.2 °F 30.14 in Calm     80% 0.00 in 0.00 W/m2
00:05 19.4 °F 14.2 °F 30.14 in Calm   2.0 mph 80% 0.00 in 0.00 W/m2
00:10 19.5 °F 14.3 °F 30.14 in Calm   1.0 mph 80% 0.00 in 0.00 W/m2
00:15 19.4 °F 14.0 °F 30.14 in Calm     79% 0.00 in 0.00 W/m2
00:20 19.3 °F 13.9 °F 30.14 in Calm     79% 0.00 in 0.00 W/m2
00:25 19.1 °F 13.7 °F 30.14 in Calm     79% 0.00 in 0.00 W/m2
00:30 19.1 °F 13.7 °F 30.14 in Calm     79% 0.00 in 0.00 W/m2
00:35 18.9 °F 13.5 °F 30.15 in Calm     79% 0.00 in 0.00 W/m2
00:40 18.8 °F 13.4 °F 30.15 in Calm     79% 0.00 in 0.00 W/m2
00:45 18.8 °F 13.4 °F 30.15 in Calm     79% 0.00 in 0.00 W/m2
00:50 18.7 °F 13.3 °F 30.15 in Calm     79% 0.00 in 0.00 W/m2
00:54 18.8 °F 13.7 °F 30.15 in Calm   2.0 mph 80% 0.00 in 0.00 W/m2
01:00 18.8 °F 13.7 °F 30.15 in Calm     80% 0.00 in 0.00 W/m2
01:05 18.8 °F 13.7 °F 30.15 in Calm     80% 0.00 in 0.00 W/m2
01:10 22.6 °F 16.2 °F 30.15 in Calm     76% 0.00 in 0.00 W/m2
01:15 22.6 °F 16.2 °F 30.15 in Calm     76% 0.00 in 0.00 W/m2
01:20 22.7 °F 16.6 °F 30.15 in Calm     77% 0.00 in 0.00 W/m2
01:25 22.6 °F 16.5 °F 30.14 in Calm     77% 0.00 in 0.00 W/m2
01:30 22.6 °F 16.8 °F 30.14 in Calm     78% 0.00 in 0.00 W/m2
01:35 22.5 °F 16.7 °F 30.14 in Calm     78% 0.00 in 0.00 W/m2
01:40 22.3 °F 16.5 °F 30.14 in Calm     78% 0.00 in 0.00 W/m2
01:44 22.1 °F 16.6 °F 30.14 in Calm     79% 0.00 in 0.00 W/m2
01:49 22.0 °F 16.5 °F 30.14 in Calm     79% 0.00 in 0.00 W/m2
01:55 21.8 °F 16.3 °F 30.14 in Calm     79% 0.00 in 0.00 W/m2
02:00 21.8 °F 16.6 °F 30.14 in Calm     80% 0.00 in 0.00 W/m2
02:05 21.7 °F 16.2 °F 30.14 in Calm     79% 0.00 in 0.00 W/m2
02:10 21.7 °F 16.2 °F 30.14 in Calm     79% 0.00 in 0.00 W/m2
02:14 21.7 °F 16.2 °F 30.13 in Calm     79% 0.00 in 0.00 W/m2
02:20 21.6 °F 16.1 °F 30.14 in Calm     79% 0.00 in 0.00 W/m2
02:25 21.6 °F 16.1 °F 30.13 in Calm     79% 0.00 in 0.00 W/m2
02:30 21.6 °F 16.1 °F 30.14 in Calm     79% 0.00 in 0.00 W/m2
02:35 21.6 °F 16.1 °F 30.14 in Calm     79% 0.00 in 0.00 W/m2
02:40 21.6 °F 16.4 °F 30.14 in Calm     80% 0.00 in 0.00 W/m2
02:45 21.6 °F 16.4 °F 30.14 in Calm     80% 0.00 in 0.00 W/m2
02:50 21.6 °F 16.4 °F 30.14 in Calm     80% 0.00 in 0.00 W/m2
02:55 17.9 °F 13.6 °F 30.13 in Calm     83% 0.00 in 0.00 W/m2
03:00 17.9 °F 13.6 °F 30.13 in Calm     83% 0.00 in 0.00 W/m2
03:05 17.8 °F 13.5 °F 30.13 in Calm     83% 0.00 in 0.00 W/m2
03:10 17.7 °F 13.4 °F 30.13 in Calm     83% 0.00 in 0.00 W/m2
03:15 17.7 °F 13.4 °F 30.13 in Calm     83% 0.00 in 0.00 W/m2
03:20 17.6 °F 13.3 °F 30.13 in Calm     83% 0.00 in 0.00 W/m2
03:25 17.7 °F 13.2 °F 30.13 in Calm     82% 0.00 in 0.00 W/m2
03:30 17.8 °F 13.2 °F 30.13 in Calm     82% 0.00 in 0.00 W/m2
03:35 17.9 °F 13.1 °F 30.13 in Calm     81% 0.00 in 0.00 W/m2
03:40 17.7 °F 12.6 °F 30.12 in Calm     80% 0.00 in 0.00 W/m2
03:45 17.5 °F 12.4 °F 30.12 in Calm     80% 0.00 in 0.00 W/m2
03:50 17.2 °F 12.1 °F 30.12 in Calm     80% 0.00 in 0.00 W/m2
03:55 17.0 °F 12.2 °F 30.12 in Calm     81% 0.00 in 0.00 W/m2
04:00 17.2 °F 12.4 °F 30.12 in Calm   1.0 mph 81% 0.00 in 0.00 W/m2
04:05 17.3 °F 12.5 °F 30.12 in Calm     81% 0.00 in 0.00 W/m2
04:10 17.3 °F 12.5 °F 30.12 in Calm   2.0 mph 81% 0.00 in 0.00 W/m2
04:15 17.3 °F 12.5 °F 30.13 in Calm     81% 0.00 in 0.00 W/m2
04:20 17.4 °F 12.6 °F 30.13 in Calm     81% 0.00 in 0.00 W/m2
04:25 17.4 °F 12.9 °F 30.13 in Calm     82% 0.00 in 0.00 W/m2
04:30 17.4 °F 12.9 °F 30.13 in Calm     82% 0.00 in 0.00 W/m2
04:35 17.4 °F 12.9 °F 30.13 in Calm     82% 0.00 in 0.00 W/m2
04:40 17.4 °F 12.9 °F 30.13 in Calm     82% 0.00 in 0.00 W/m2
04:45 17.4 °F 13.1 °F 30.13 in Calm     83% 0.00 in 0.00 W/m2
04:50 17.4 °F 13.1 °F 30.13 in Calm     83% 0.00 in 0.00 W/m2
04:55 17.5 °F 13.2 °F 30.12 in Calm     83% 0.00 in 0.00 W/m2
05:00 17.5 °F 13.5 °F 30.12 in Calm     84% 0.00 in 0.00 W/m2
05:05 17.5 °F 13.5 °F 30.13 in Calm     84% 0.00 in 0.00 W/m2
05:10 17.5 °F 13.5 °F 30.13 in Calm     84% 0.00 in 0.00 W/m2
05:15 17.4 °F 13.4 °F 30.13 in Calm     84% 0.00 in 0.00 W/m2
05:20 17.4 °F 13.4 °F 30.13 in Calm     84% 0.00 in 0.00 W/m2
05:25 17.5 °F 13.5 °F 30.13 in Calm     84% 0.00 in 0.00 W/m2
05:30 17.4 °F 13.4 °F 30.13 in Calm     84% 0.00 in 0.00 W/m2
05:35 17.5 °F 13.8 °F 30.13 in Calm   1.0 mph 85% 0.00 in 0.00 W/m2
05:40 17.8 °F 14.1 °F 30.13 in SW 3.0 mph 3.0 mph 85% 0.00 in 0.00 W/m2
05:45 17.8 °F 14.1 °F 30.13 in SW 3.0 mph 5.0 mph 85% 0.00 in 0.00 W/m2
05:50 17.9 °F 14.4 °F 30.13 in Calm   3.0 mph 86% 0.00 in 0.00 W/m2
05:55 17.9 °F 14.4 °F 30.13 in SW 1.0 mph 2.0 mph 86% 0.00 in 0.00 W/m2
06:00 18.0 °F 14.8 °F 30.13 in West 2.0 mph 3.0 mph 87% 0.00 in 0.00 W/m2
06:05 18.0 °F 14.8 °F 30.14 in Calm   3.0 mph 87% 0.00 in 0.00 W/m2
06:10 18.0 °F 14.8 °F 30.14 in Calm   1.0 mph 87% 0.00 in 0.00 W/m2
06:15 17.8 °F 14.6 °F 30.14 in Calm   3.0 mph 87% 0.00 in 0.00 W/m2
06:19 17.7 °F 14.5 °F 30.14 in Calm   2.0 mph 87% 0.00 in 0.00 W/m2
06:25 17.6 °F 14.7 °F 30.14 in Calm   3.0 mph 88% 0.00 in 0.00 W/m2
06:30 17.6 °F 14.7 °F 30.14 in Calm   3.0 mph 88% 0.00 in 0.00 W/m2
06:35 17.7 °F 14.8 °F 30.14 in Calm   5.0 mph 88% 0.00 in 0.00 W/m2
06:40 17.5 °F 14.6 °F 30.14 in WSW 5.0 mph 6.0 mph 88% 0.00 in 0.00 W/m2
06:45 20.0 °F 16.2 °F 30.14 in Calm   5.0 mph 85% 0.00 in 0.00 W/m2
06:50 19.8 °F 16.3 °F 30.14 in Calm     86% 0.00 in 0.00 W/m2
06:55 19.7 °F 16.2 °F 30.14 in Calm     86% 0.00 in 0.00 W/m2
07:00 19.6 °F 16.1 °F 30.14 in Calm   2.0 mph 86% 0.00 in 0.00 W/m2
07:05 19.5 °F 16.0 °F 30.14 in Calm     86% 0.00 in 0.00 W/m2
07:10 19.4 °F 15.9 °F 30.14 in Calm   3.0 mph 86% 0.00 in 0.00 W/m2
07:15 19.3 °F 15.8 °F 30.14 in Calm   6.0 mph 86% 0.00 in 0.00 W/m2
07:20 19.1 °F 15.6 °F 30.14 in Calm     86% 0.00 in 0.00 W/m2
07:24 19.1 °F 15.3 °F 30.14 in Calm   3.0 mph 85% 0.00 in 0.00 W/m2
07:30 18.9 °F 15.2 °F 30.14 in Calm   3.0 mph 85% 0.00 in 0.00 W/m2
07:35 18.9 °F 15.2 °F 30.14 in Calm   1.0 mph 85% 0.00 in 0.00 W/m2
07:40 18.9 °F 15.2 °F 30.14 in Calm     85% 0.00 in 0.00 W/m2
07:45 16.0 °F 12.8 °F 30.14 in Calm     87% 0.00 in 0.00 W/m2
07:50 16.2 °F 13.0 °F 30.14 in Calm     87% 0.00 in 0.00 W/m2
07:55 16.1 °F 12.9 °F 30.14 in Calm   2.0 mph 87% 0.00 in 0.00 W/m2
08:00 16.2 °F 13.0 °F 30.14 in Calm     87% 0.00 in 0.00 W/m2
08:05 19.1 °F 15.3 °F 30.15 in Calm     85% 0.00 in 19.00 W/m2
08:10 19.1 °F 15.1 °F 30.15 in Calm     84% 0.00 in 16.00 W/m2
08:15 19.1 °F 15.1 °F 30.15 in Calm     84% 0.00 in 14.00 W/m2
08:20 19.1 °F 15.1 °F 30.15 in Calm     84% 0.00 in 12.00 W/m2
08:25 18.9 °F 14.9 °F 30.15 in Calm     84% 0.00 in 16.00 W/m2
08:30 18.8 °F 14.8 °F 30.15 in Calm     84% 0.00 in 23.00 W/m2
08:35 18.6 °F 14.6 °F 30.16 in Calm     84% 0.00 in 37.00 W/m2
08:40 18.6 °F 14.6 °F 30.16 in Calm     84% 0.00 in 26.00 W/m2
08:45 18.7 °F 14.7 °F 30.16 in Calm     84% 0.00 in 32.00 W/m2
08:50 18.8 °F 14.8 °F 30.16 in Calm     84% 0.00 in 42.00 W/m2
08:55 19.0 °F 15.0 °F 30.16 in Calm     84% 0.00 in 49.00 W/m2
09:00 19.1 °F 14.8 °F 30.16 in Calm     83% 0.00 in 39.00 W/m2
09:05 19.2 °F 14.9 °F 30.16 in Calm     83% 0.00 in 35.00 W/m2
09:10 19.3 °F 15.0 °F 30.16 in Calm     83% 0.00 in 33.00 W/m2
09:14 19.4 °F 14.8 °F 30.16 in Calm     82% 0.00 in 37.00 W/m2
09:20 19.5 °F 14.9 °F 30.16 in Calm     82% 0.00 in 53.00 W/m2
09:25 19.5 °F 14.9 °F 30.17 in Calm     82% 0.00 in 65.00 W/m2
09:30 19.7 °F 15.1 °F 30.17 in Calm     82% 0.00 in 72.00 W/m2
09:35 19.9 °F 15.3 °F 30.17 in Calm     82% 0.00 in 77.00 W/m2
09:39 20.1 °F 15.5 °F 30.17 in Calm     82% 0.00 in 86.00 W/m2
Chelsea Cove, Bountiful, UT
Compliments of Weather Underground - 1.25 mb